createdAt,value
2018-05-15T00:00:45.745Z,25.42
2018-05-15T00:03:12.199Z,29.92
2018-05-15T00:05:38.561Z,31.05
2018-05-15T00:08:09.811Z,34.33
2018-05-15T00:10:36.887Z,34.03
2018-05-15T00:13:03.229Z,32.63
2018-05-15T00:15:29.875Z,30.35
2018-05-15T00:17:56.363Z,31.08
2018-05-15T00:20:22.721Z,30.60
2018-05-15T00:22:49.682Z,28.70
2018-05-15T00:25:20.195Z,27.60
2018-05-15T00:27:46.560Z,26.73
2018-05-15T00:30:13.634Z,27.48
2018-05-15T00:32:40.723Z,26.20
2018-05-15T00:35:08.630Z,24.98
2018-05-15T00:37:34.913Z,24.40
2018-05-15T00:40:01.401Z,25.40
2018-05-15T00:42:31.949Z,27.42
2018-05-15T00:44:59.698Z,27.02
2018-05-15T00:47:26.862Z,26.25
2018-05-15T00:49:55.117Z,26.77
2018-05-15T00:52:21.498Z,25.33
2018-05-15T00:57:57.194Z,25.15
2018-05-15T01:00:24.211Z,23.38
2018-05-15T01:02:55.112Z,24.00
2018-05-15T01:05:21.489Z,23.48
2018-05-15T01:07:47.818Z,23.83
2018-05-15T01:10:14.187Z,21.60
2018-05-15T01:12:40.638Z,22.75
2018-05-15T01:15:06.950Z,23.95
2018-05-15T01:17:34.023Z,25.25
2018-05-15T01:20:01.043Z,27.77
2018-05-15T01:22:28.198Z,27.90
2018-05-15T01:24:54.661Z,24.00
2018-05-15T01:27:21.092Z,23.70
2018-05-15T01:29:47.960Z,21.92
2018-05-15T01:32:14.318Z,22.95
2018-05-15T01:34:41.600Z,22.30
2018-05-15T01:37:08.109Z,23.52
2018-05-15T01:39:35.263Z,23.05
2018-05-15T01:42:02.332Z,23.25
2018-05-15T01:44:28.636Z,24.12
2018-05-15T01:46:55.837Z,22.48
2018-05-15T01:49:22.161Z,25.90
2018-05-15T01:51:48.493Z,25.58
2018-05-15T01:54:15.032Z,23.58
2018-05-15T01:56:45.895Z,22.37
2018-05-15T01:59:12.291Z,24.73
2018-05-15T02:01:39.187Z,24.77
2018-05-15T02:04:06.281Z,25.62
2018-05-15T02:06:32.602Z,25.75
2018-05-15T02:08:58.997Z,30.65
2018-05-15T02:11:26.050Z,31.87
2018-05-15T02:13:53.112Z,34.83
2018-05-15T02:16:19.443Z,35.33
2018-05-15T02:18:45.740Z,33.20
2018-05-15T02:21:12.097Z,35.13
2018-05-15T02:23:38.410Z,32.50
2018-05-15T02:26:05.613Z,31.95
2018-05-15T02:28:31.950Z,33.03
2018-05-15T02:30:58.248Z,33.47
2018-05-15T02:33:24.577Z,33.95
2018-05-15T02:35:50.890Z,34.78
2018-05-15T02:38:17.194Z,30.33
2018-05-15T02:40:44.259Z,31.50
2018-05-15T02:43:11.307Z,33.22
2018-05-15T02:45:38.379Z,30.98
2018-05-15T02:48:04.723Z,29.98
2018-05-15T02:50:31.068Z,33.70
2018-05-15T02:52:57.461Z,31.80
2018-05-15T02:55:23.818Z,34.17
2018-05-15T02:57:50.145Z,34.47
2018-05-15T03:00:16.514Z,34.40
2018-05-15T03:02:42.886Z,37.65
2018-05-15T03:05:09.198Z,35.25
2018-05-15T03:07:35.518Z,41.00
2018-05-15T03:10:02.649Z,36.80
2018-05-15T03:12:29.032Z,37.63
2018-05-15T03:14:55.384Z,39.08
2018-05-15T03:17:21.719Z,39.45
2018-05-15T03:19:48.041Z,38.38
2018-05-15T03:22:14.404Z,39.20
2018-05-15T03:24:41.451Z,41.35
2018-05-15T03:27:08.566Z,42.50
2018-05-15T03:29:34.903Z,42.15
2018-05-15T03:32:01.274Z,43.17
2018-05-15T03:34:27.654Z,43.55
2018-05-15T03:36:53.950Z,40.45
2018-05-15T03:39:24.260Z,46.30
2018-05-15T03:41:50.632Z,47.30
2018-05-15T03:44:17.022Z,52.38
2018-05-15T03:46:44.118Z,46.05
2018-05-15T03:49:10.502Z,49.20
2018-05-15T03:51:36.825Z,48.15
2018-05-15T03:54:03.204Z,44.03
2018-05-15T03:56:29.617Z,40.28
2018-05-15T03:58:56.061Z,43.35
2018-05-15T04:01:40.835Z,44.92
2018-05-15T04:04:26.408Z,42.50
2018-05-15T04:07:11.126Z,41.05
2018-05-15T04:09:37.468Z,41.67
2018-05-15T04:12:03.800Z,40.67
2018-05-15T04:14:30.198Z,44.45
2018-05-15T04:16:57.280Z,40.97
2018-05-15T04:19:23.604Z,43.17
2018-05-15T04:21:49.906Z,41.10
2018-05-15T04:24:17.037Z,42.78
2018-05-15T04:26:43.357Z,41.08
2018-05-15T04:29:10.687Z,41.58
2018-05-15T04:31:37.103Z,42.70
2018-05-15T04:34:03.445Z,44.90
2018-05-15T04:36:29.841Z,41.92
2018-05-15T04:38:56.187Z,40.50
2018-05-15T04:41:22.567Z,40.05
2018-05-15T04:43:49.240Z,40.35
2018-05-15T04:46:16.098Z,38.67
2018-05-15T04:48:42.412Z,38.83
2018-05-15T04:51:08.966Z,38.30
2018-05-15T04:53:35.323Z,37.72
2018-05-15T04:56:01.845Z,35.55
2018-05-15T04:58:28.275Z,34.38
2018-05-15T05:00:54.813Z,34.35
2018-05-15T05:03:21.232Z,32.88
2018-05-15T05:05:47.697Z,33.22
2018-05-15T05:08:14.042Z,35.05
2018-05-15T05:10:40.417Z,31.27
2018-05-15T05:13:06.921Z,32.40
2018-05-15T05:15:34.072Z,33.55
2018-05-15T05:18:01.255Z,32.42
2018-05-15T05:20:27.664Z,30.95
2018-05-15T05:22:55.113Z,32.78
2018-05-15T05:25:22.241Z,32.10
2018-05-15T05:27:48.649Z,31.12
2018-05-15T05:30:14.979Z,33.30
2018-05-15T05:32:41.331Z,32.20
2018-05-15T05:35:08.402Z,32.15
2018-05-15T05:37:35.536Z,28.73
2018-05-15T05:40:02.739Z,29.30
2018-05-15T05:42:29.030Z,25.33
2018-05-15T05:44:55.598Z,25.90
2018-05-15T05:47:21.941Z,23.00
2018-05-15T05:49:49.001Z,24.83
2018-05-15T05:52:15.481Z,23.50
2018-05-15T05:54:41.794Z,22.80
2018-05-15T05:57:08.926Z,24.50
2018-05-15T05:59:35.311Z,23.60
2018-05-15T06:02:01.648Z,22.97
2018-05-15T06:04:27.995Z,22.93
2018-05-15T06:06:54.449Z,21.93
2018-05-15T06:09:20.774Z,17.40
2018-05-15T06:11:47.088Z,16.60
2018-05-15T06:14:13.497Z,16.50
2018-05-15T06:16:40.538Z,16.50
2018-05-15T06:19:06.835Z,16.43
2018-05-15T06:21:33.901Z,18.77
2018-05-15T06:24:00.215Z,19.97
2018-05-15T06:26:26.554Z,19.37
2018-05-15T06:28:52.873Z,19.53
2018-05-15T06:31:20.051Z,20.50
2018-05-15T06:33:46.490Z,20.83
2018-05-15T06:36:12.808Z,20.90
2018-05-15T06:38:39.151Z,22.33
2018-05-15T06:41:05.469Z,20.07
2018-05-15T06:43:32.176Z,19.60
2018-05-15T06:45:59.220Z,19.80
2018-05-15T06:48:26.417Z,18.50
2018-05-15T06:50:52.732Z,19.57
2018-05-15T06:53:19.122Z,19.63
2018-05-15T06:55:46.184Z,19.62
2018-05-15T06:58:12.550Z,18.73
2018-05-15T07:00:38.889Z,18.17
2018-05-15T07:03:05.411Z,17.60
2018-05-15T07:05:31.839Z,18.60
2018-05-15T07:07:58.181Z,18.60
2018-05-15T07:10:24.550Z,17.65
2018-05-15T07:12:50.938Z,17.83
2018-05-15T07:15:17.367Z,16.40
2018-05-15T07:17:43.699Z,15.27
2018-05-15T07:20:10.051Z,17.33
2018-05-15T07:22:36.360Z,15.40
2018-05-15T07:25:02.770Z,15.13
2018-05-15T07:27:29.195Z,14.25
2018-05-15T07:29:55.498Z,15.23
2018-05-15T07:32:22.686Z,14.20
2018-05-15T07:34:49.017Z,14.73
2018-05-15T07:37:15.373Z,15.18
2018-05-15T07:39:41.719Z,13.98
2018-05-15T07:42:08.798Z,14.77
2018-05-15T07:44:35.901Z,12.93
2018-05-15T07:47:03.086Z,14.27
2018-05-15T07:49:30.138Z,15.20
2018-05-15T07:51:57.229Z,13.40
2018-05-15T07:54:23.603Z,15.20
2018-05-15T07:56:49.926Z,14.00
2018-05-15T07:59:16.286Z,15.07
2018-05-15T08:01:42.669Z,12.80
2018-05-15T08:04:09.163Z,14.10
2018-05-15T08:06:36.438Z,14.77
2018-05-15T08:09:02.990Z,13.90
2018-05-15T08:11:29.392Z,13.73
2018-05-15T08:13:55.763Z,12.57
2018-05-15T08:16:22.184Z,12.37
2018-05-15T08:18:48.522Z,12.83
2018-05-15T08:21:14.845Z,11.10
2018-05-15T08:23:41.170Z,11.90
2018-05-15T08:26:07.521Z,12.30
2018-05-15T08:28:33.864Z,11.93
2018-05-15T08:31:00.276Z,12.70
2018-05-15T08:33:26.683Z,12.80
2018-05-15T08:35:53.044Z,11.93
2018-05-15T08:38:19.377Z,11.27
2018-05-15T08:40:45.680Z,11.70
2018-05-15T08:43:12.004Z,17.60
2018-05-15T08:45:38.365Z,12.17
2018-05-15T08:48:04.762Z,11.97
2018-05-15T08:50:31.088Z,10.93
2018-05-15T08:52:57.413Z,10.97
2018-05-15T08:55:23.720Z,10.50
2018-05-15T08:57:50.032Z,11.40
2018-05-15T09:00:16.393Z,10.90
2018-05-15T09:02:42.703Z,10.63
2018-05-15T09:05:09.067Z,10.87
2018-05-15T09:07:35.419Z,10.87
2018-05-15T09:10:01.792Z,11.30
2018-05-15T09:12:28.121Z,10.60
2018-05-15T09:14:54.562Z,10.70
2018-05-15T09:17:20.965Z,10.20
2018-05-15T09:19:48.014Z,11.17
2018-05-15T09:22:15.090Z,11.53
2018-05-15T09:24:41.394Z,10.43
2018-05-15T09:27:08.446Z,10.93
2018-05-15T09:29:34.790Z,10.40
2018-05-15T09:32:01.113Z,11.70
2018-05-15T09:34:27.533Z,10.47
2018-05-15T09:36:54.600Z,11.83
2018-05-15T09:39:20.939Z,13.87
2018-05-15T09:41:47.477Z,12.10
2018-05-15T09:44:13.861Z,11.43
2018-05-15T09:46:40.943Z,12.07
2018-05-15T09:49:07.366Z,11.77
2018-05-15T09:51:33.839Z,10.10
2018-05-15T09:54:00.225Z,9.90
2018-05-15T09:56:26.580Z,9.47
2018-05-15T09:58:52.943Z,8.97
2018-05-15T10:01:19.682Z,9.87
2018-05-15T10:03:46.036Z,11.23
2018-05-15T10:06:13.218Z,9.40
2018-05-15T10:08:39.537Z,10.33
2018-05-15T10:11:05.975Z,9.80
2018-05-15T10:13:32.362Z,10.70
2018-05-15T10:15:59.540Z,10.80
2018-05-15T10:18:25.996Z,9.67
2018-05-15T10:20:52.429Z,9.80
2018-05-15T10:23:18.985Z,8.37
2018-05-15T10:25:45.423Z,9.10
2018-05-15T10:28:11.880Z,10.00
2018-05-15T10:30:38.985Z,9.10
2018-05-15T10:33:05.419Z,8.50
2018-05-15T10:35:31.791Z,9.50
2018-05-15T10:37:58.959Z,9.30
2018-05-15T10:40:26.031Z,6.57
2018-05-15T10:42:52.638Z,4.63
2018-05-15T10:45:19.750Z,4.53
2018-05-15T10:47:46.256Z,4.40
2018-05-15T10:50:12.723Z,3.23
2018-05-15T10:52:39.261Z,3.80
2018-05-15T10:55:05.644Z,4.80
2018-05-15T10:57:32.130Z,4.00
2018-05-15T10:59:59.240Z,4.47
2018-05-15T11:02:26.831Z,4.10
2018-05-15T11:04:53.423Z,3.33
2018-05-15T11:07:19.856Z,4.17
2018-05-15T11:09:46.390Z,3.40
2018-05-15T11:12:12.816Z,3.63
2018-05-15T11:14:39.365Z,4.00
2018-05-15T11:17:05.766Z,3.67
2018-05-15T11:19:50.835Z,3.33
2018-05-15T11:22:36.335Z,3.90
2018-05-15T11:25:02.873Z,3.60
2018-05-15T11:27:29.376Z,3.60
2018-05-15T11:29:55.814Z,4.37
2018-05-15T11:32:22.211Z,3.50
2018-05-15T11:34:48.592Z,3.43
2018-05-15T11:37:14.954Z,2.93
2018-05-15T11:39:41.312Z,3.50
2018-05-15T11:42:08.432Z,3.27
2018-05-15T11:44:34.790Z,3.50
2018-05-15T11:47:01.371Z,2.93
2018-05-15T11:49:28.437Z,3.57
2018-05-15T11:51:55.183Z,3.20
2018-05-15T11:54:20.938Z,3.00
2018-05-15T11:56:48.227Z,4.00
2018-05-15T11:59:14.647Z,3.80
2018-05-15T12:01:41.199Z,3.80
2018-05-15T12:04:07.993Z,2.80
2018-05-15T12:06:39.207Z,3.80
2018-05-15T12:09:06.613Z,4.07
2018-05-15T12:11:33.190Z,3.33
2018-05-15T12:14:00.086Z,3.97
2018-05-15T12:16:27.332Z,3.40
2018-05-15T12:18:54.164Z,3.67
2018-05-15T12:21:20.551Z,3.50
2018-05-15T12:23:46.975Z,3.43
2018-05-15T12:26:13.606Z,3.50
2018-05-15T12:28:40.061Z,3.00
2018-05-15T12:31:06.853Z,3.27
2018-05-15T12:33:33.326Z,3.20
2018-05-15T12:35:59.814Z,3.80
2018-05-15T12:38:26.322Z,3.37
2018-05-15T12:40:52.692Z,3.03
2018-05-15T12:43:19.014Z,3.60
2018-05-15T12:45:45.397Z,3.70
2018-05-15T12:48:12.020Z,3.30
2018-05-15T12:50:39.060Z,4.20
2018-05-15T12:53:05.413Z,3.00
2018-05-15T12:55:31.835Z,3.33
2018-05-15T12:57:58.305Z,3.03
2018-05-15T13:00:24.729Z,3.07
2018-05-15T13:02:51.826Z,3.30
2018-05-15T13:05:18.301Z,3.57
2018-05-15T13:07:44.783Z,2.60
2018-05-15T13:10:11.352Z,3.17
2018-05-15T13:12:37.761Z,3.83
2018-05-15T13:15:04.243Z,3.13
2018-05-15T13:17:31.343Z,3.43
2018-05-15T13:19:57.711Z,3.10
2018-05-15T13:22:24.145Z,3.17
2018-05-15T13:24:50.602Z,2.93
2018-05-15T13:27:17.070Z,2.73
2018-05-15T13:29:43.566Z,3.33
2018-05-15T13:32:10.142Z,2.60
2018-05-15T13:34:37.311Z,2.87
2018-05-15T13:37:04.575Z,2.77
2018-05-15T13:39:30.966Z,3.40
2018-05-15T13:41:57.474Z,2.30
2018-05-15T13:44:23.930Z,2.63
2018-05-15T13:46:50.290Z,3.40
2018-05-15T13:49:16.721Z,2.80
2018-05-15T13:51:43.364Z,2.60
2018-05-15T13:54:09.772Z,2.40
2018-05-15T13:56:36.143Z,2.60
2018-05-15T13:59:03.252Z,3.40
2018-05-15T14:01:29.723Z,2.87
2018-05-15T14:03:56.830Z,3.63
2018-05-15T14:06:23.660Z,2.87
2018-05-15T14:08:50.064Z,2.70
2018-05-15T14:11:16.428Z,2.53
2018-05-15T14:13:43.069Z,2.30
2018-05-15T14:16:09.490Z,2.30
2018-05-15T14:18:35.831Z,2.60
2018-05-15T14:21:02.493Z,2.10
2018-05-15T14:23:28.796Z,2.13
2018-05-15T14:25:55.253Z,2.30
2018-05-15T14:28:21.601Z,1.93
2018-05-15T14:30:47.887Z,2.50
2018-05-15T14:33:14.313Z,1.90
2018-05-15T14:35:40.661Z,2.53
2018-05-15T14:38:07.069Z,2.60
2018-05-15T14:40:34.277Z,3.30
2018-05-15T14:43:13.789Z,3.70
2018-05-15T14:45:40.293Z,3.07
2018-05-15T14:48:06.769Z,3.20
2018-05-15T14:50:48.139Z,3.90
2018-05-15T14:53:14.519Z,3.63
2018-05-15T14:55:40.942Z,4.30
2018-05-15T14:58:07.385Z,4.20
2018-05-15T15:00:33.794Z,3.63
2018-05-15T15:03:00.897Z,3.97
2018-05-15T15:05:27.225Z,3.90
2018-05-15T15:07:53.581Z,5.77
2018-05-15T15:10:24.090Z,4.50
2018-05-15T15:12:50.429Z,4.73
2018-05-15T15:15:16.832Z,4.70
2018-05-15T15:17:43.182Z,2.60
2018-05-15T15:20:09.588Z,3.27
2018-05-15T15:22:36.073Z,4.43
2018-05-15T15:25:06.503Z,3.60
2018-05-15T15:27:33.180Z,3.20
2018-05-15T15:29:59.564Z,4.40
2018-05-15T15:32:25.874Z,3.60
2018-05-15T15:34:52.196Z,4.53
2018-05-15T15:37:18.588Z,4.37
2018-05-15T15:39:44.983Z,3.90
2018-05-15T15:42:11.322Z,4.40
2018-05-15T15:44:37.788Z,5.07
2018-05-15T15:47:04.227Z,6.12
2018-05-15T15:49:30.717Z,5.22
2018-05-15T15:51:57.871Z,7.25
2018-05-15T15:54:24.271Z,5.65
2018-05-15T15:56:50.579Z,5.87
2018-05-15T15:59:16.931Z,7.05
2018-05-15T16:01:43.220Z,7.47
2018-05-15T16:04:09.712Z,6.65
2018-05-15T16:06:36.828Z,8.48
2018-05-15T16:09:07.724Z,9.48
2018-05-15T16:11:34.303Z,9.30
2018-05-15T16:14:00.872Z,9.05
2018-05-15T16:16:28.076Z,9.40
2018-05-15T16:18:54.591Z,6.95
2018-05-15T16:21:21.092Z,7.70
2018-05-15T16:23:48.431Z,6.95
2018-05-15T16:26:14.874Z,6.57
2018-05-15T16:28:41.951Z,7.05
2018-05-15T16:31:08.396Z,8.23
2018-05-15T16:33:34.946Z,8.70
2018-05-15T16:36:01.408Z,9.35
2018-05-15T16:38:27.902Z,8.90
2018-05-15T16:40:54.321Z,10.80
2018-05-15T16:43:20.703Z,9.98
2018-05-15T16:45:47.280Z,10.07
2018-05-15T16:48:13.746Z,9.57
2018-05-15T16:50:40.133Z,10.30
2018-05-15T16:53:07.332Z,9.23
2018-05-15T16:55:34.524Z,12.80
2018-05-15T16:58:00.983Z,11.73
2018-05-15T17:00:27.516Z,11.27
2018-05-15T17:02:54.165Z,10.65
2018-05-15T17:05:20.799Z,11.75
2018-05-15T17:07:48.271Z,11.30
2018-05-15T17:10:14.840Z,8.98
2018-05-15T17:12:42.397Z,9.60
2018-05-15T17:15:09.599Z,9.57
2018-05-15T17:17:36.196Z,10.43
2018-05-15T17:20:03.562Z,8.45
2018-05-15T17:22:30.219Z,6.97
2018-05-15T17:24:56.633Z,7.32
2018-05-15T17:27:23.175Z,8.80
2018-05-15T17:29:49.955Z,7.93
2018-05-15T17:32:16.678Z,8.35
2018-05-15T17:34:43.180Z,7.80
2018-05-15T17:37:09.589Z,7.25
2018-05-15T17:39:36.417Z,7.85
2018-05-15T17:42:03.135Z,6.82
2018-05-15T17:44:29.787Z,6.55
2018-05-15T17:46:56.396Z,6.90
2018-05-15T17:49:23.098Z,6.20
2018-05-15T17:51:49.479Z,7.00
2018-05-15T17:54:16.172Z,8.45
2018-05-15T17:56:42.692Z,7.60
2018-05-15T17:59:10.009Z,6.78
2018-05-15T18:01:36.531Z,8.18
2018-05-15T18:04:03.119Z,5.87
2018-05-15T18:06:29.653Z,5.20
2018-05-15T18:08:56.138Z,6.78
2018-05-15T18:11:22.693Z,7.37
2018-05-15T18:13:49.159Z,7.47
2018-05-15T18:16:16.443Z,9.55
2018-05-15T18:18:43.027Z,8.95
2018-05-15T18:21:10.390Z,8.13
2018-05-15T18:23:36.772Z,8.80
2018-05-15T18:26:03.287Z,9.30
2018-05-15T18:28:29.886Z,8.85
2018-05-15T18:30:57.137Z,9.48
2018-05-15T18:33:24.543Z,7.55
2018-05-15T18:35:50.963Z,7.68
2018-05-15T18:38:19.048Z,6.72
2018-05-15T18:40:45.527Z,6.53
2018-05-15T18:43:12.751Z,6.25
2018-05-15T18:45:41.484Z,6.72
2018-05-15T18:48:08.045Z,6.50
2018-05-15T18:50:34.432Z,4.97
2018-05-15T18:53:01.691Z,5.45
2018-05-15T18:55:28.947Z,4.53
2018-05-15T18:57:55.396Z,4.22
2018-05-15T19:00:22.450Z,4.47
2018-05-15T19:02:48.803Z,5.60
2018-05-15T19:05:15.173Z,6.20
2018-05-15T19:07:42.335Z,5.22
2018-05-15T19:10:09.879Z,6.25
2018-05-15T19:12:37.093Z,6.72
2018-05-15T19:15:03.501Z,4.70
2018-05-15T19:17:29.903Z,5.12
2018-05-15T19:19:57.083Z,5.75
2018-05-15T19:22:23.478Z,6.12
2018-05-15T19:24:50.679Z,6.90
2018-05-15T19:27:17.277Z,6.80
2018-05-15T19:29:43.818Z,5.68
2018-05-15T19:32:16.343Z,6.72
2018-05-15T19:34:48.808Z,6.60
2018-05-15T19:37:15.904Z,5.87
2018-05-15T19:39:43.389Z,7.28
2018-05-15T19:42:09.781Z,7.32
2018-05-15T19:44:37.008Z,5.07
2018-05-15T19:47:03.475Z,5.95
2018-05-15T19:49:30.649Z,6.20
2018-05-15T19:51:56.961Z,5.97
2018-05-15T19:54:23.355Z,7.55
2018-05-15T19:56:49.977Z,6.18
2018-05-15T19:59:16.386Z,7.40
2018-05-15T20:01:42.769Z,7.70
2018-05-15T20:04:09.888Z,7.45
2018-05-15T20:06:36.323Z,7.35
2018-05-15T20:09:06.128Z,7.28
2018-05-15T20:11:32.646Z,6.75
2018-05-15T20:13:58.998Z,6.35
2018-05-15T20:16:25.410Z,5.82
2018-05-15T20:18:51.784Z,4.95
2018-05-15T20:21:18.287Z,4.87
2018-05-15T20:23:44.940Z,5.35
2018-05-15T20:26:11.295Z,6.40
2018-05-15T20:28:38.104Z,5.40
2018-05-15T20:31:04.551Z,6.20
2018-05-15T20:33:30.998Z,5.87
2018-05-15T20:35:58.423Z,5.40
2018-05-15T20:38:25.062Z,5.30
2018-05-15T20:40:51.534Z,5.25
2018-05-15T20:43:19.431Z,5.45
2018-05-15T20:45:45.978Z,5.65
2018-05-15T20:48:12.375Z,5.05
2018-05-15T20:50:38.721Z,5.10
2018-05-15T20:53:05.144Z,4.50
2018-05-15T20:55:31.559Z,4.70
2018-05-15T20:57:57.962Z,4.60
2018-05-15T21:00:24.364Z,4.18
2018-05-15T21:02:50.770Z,4.25
2018-05-15T21:05:17.091Z,4.70
2018-05-15T21:07:43.559Z,4.60
2018-05-15T21:10:10.942Z,4.47
2018-05-15T21:12:37.300Z,4.30
2018-05-15T21:15:03.969Z,4.95
2018-05-15T21:17:30.308Z,4.97
2018-05-15T21:22:32.854Z,4.30
2018-05-15T21:24:59.264Z,4.20
2018-05-15T21:27:25.633Z,4.87
2018-05-15T21:29:51.990Z,3.50
2018-05-15T21:32:18.372Z,4.05
2018-05-15T21:34:45.458Z,3.85
2018-05-15T21:37:11.832Z,4.60
2018-05-15T21:39:38.201Z,4.65
2018-05-15T21:42:04.548Z,4.72
2018-05-15T21:44:30.961Z,4.78
2018-05-15T21:46:57.329Z,4.15
2018-05-15T21:49:24.231Z,5.78
2018-05-15T21:51:50.591Z,4.93
2018-05-15T21:54:16.997Z,5.87
2018-05-15T21:56:43.352Z,5.53
2018-05-15T21:59:09.864Z,6.15
2018-05-15T22:01:36.259Z,6.28
2018-05-15T22:04:03.452Z,5.85
2018-05-15T22:06:29.879Z,5.43
2018-05-15T22:08:56.310Z,6.20
2018-05-15T22:11:22.411Z,5.75
2018-05-15T22:14:07.171Z,5.80
2018-05-15T22:16:52.025Z,5.93
2018-05-15T22:19:36.720Z,5.85
2018-05-15T22:22:13.863Z,5.25
2018-05-15T22:24:41.012Z,6.15
2018-05-15T22:27:08.099Z,6.47
2018-05-15T22:29:34.545Z,6.15
2018-05-15T22:32:00.976Z,6.70
2018-05-15T22:34:27.819Z,6.53
2018-05-15T22:36:54.190Z,6.37
2018-05-15T22:39:21.817Z,6.10
2018-05-15T22:41:48.137Z,6.55
2018-05-15T22:44:14.462Z,6.05
2018-05-15T22:46:42.688Z,6.32
2018-05-15T22:49:08.959Z,6.70
2018-05-15T22:51:35.294Z,6.65
2018-05-15T22:54:01.639Z,7.70
2018-05-15T22:56:28.118Z,7.07
2018-05-15T22:58:55.198Z,7.65
2018-05-15T23:01:21.795Z,7.70
2018-05-15T23:03:48.143Z,7.22
2018-05-15T23:06:14.496Z,7.90
2018-05-15T23:08:46.471Z,7.15
2018-05-15T23:11:13.806Z,7.57
2018-05-15T23:13:40.262Z,7.87
2018-05-15T23:16:06.652Z,7.40
2018-05-15T23:18:33.211Z,8.35
2018-05-15T23:20:59.829Z,8.30
2018-05-15T23:23:30.372Z,7.20
2018-05-15T23:25:56.806Z,7.45
2018-05-15T23:28:23.221Z,8.63
2018-05-15T23:30:50.912Z,7.47
2018-05-15T23:33:17.341Z,7.50
2018-05-15T23:35:47.927Z,8.10
2018-05-15T23:38:14.996Z,7.22
2018-05-15T23:40:45.561Z,6.62
2018-05-15T23:43:12.336Z,7.70
2018-05-15T23:45:39.433Z,7.45
2018-05-15T23:48:05.756Z,6.50
2018-05-15T23:50:37.290Z,7.00
2018-05-15T23:53:03.611Z,8.20
2018-05-15T23:55:29.988Z,7.20
2018-05-15T23:57:56.395Z,9.25
